createdAt,value
2022-10-17T00:00:15.375Z,85.22
2022-10-17T00:03:03.408Z,85.30
2022-10-17T00:05:31.282Z,85.30
2022-10-17T00:07:59.354Z,84.54
2022-10-17T00:10:27.321Z,84.11
2022-10-17T00:12:55.293Z,83.70
2022-10-17T00:15:23.302Z,83.42
2022-10-17T00:17:51.362Z,82.79
2022-10-17T00:20:19.410Z,82.91
2022-10-17T00:22:47.381Z,82.75
2022-10-17T00:25:15.555Z,83.06
2022-10-17T00:27:43.534Z,83.03
2022-10-17T00:30:13.138Z,82.95
2022-10-17T00:32:41.211Z,82.80
2022-10-17T00:35:09.694Z,83.02
2022-10-17T00:37:37.868Z,83.18
2022-10-17T00:40:06.978Z,84.03
2022-10-17T00:42:35.347Z,85.36
2022-10-17T00:45:10.997Z,84.92
2022-10-17T00:47:39.721Z,84.46
2022-10-17T00:50:07.959Z,84.08
2022-10-17T00:52:36.505Z,83.70
2022-10-17T00:55:09.669Z,83.83
2022-10-17T00:57:39.251Z,84.09
2022-10-17T01:00:09.411Z,84.31
2022-10-17T01:02:37.954Z,84.17
2022-10-17T01:05:06.723Z,84.20
2022-10-17T01:07:37.366Z,84.49
2022-10-17T01:10:06.987Z,84.31
2022-10-17T01:12:38.235Z,84.48
2022-10-17T01:15:12.251Z,84.58
2022-10-17T01:17:52.639Z,84.42
2022-10-17T01:20:26.653Z,84.34
2022-10-17T01:23:00.665Z,83.76
2022-10-17T01:25:46.116Z,83.66
2022-10-17T01:28:20.264Z,83.40
2022-10-17T01:30:51.725Z,83.65
2022-10-17T01:33:46.176Z,84.21
2022-10-17T01:36:40.690Z,84.66
2022-10-17T01:39:20.125Z,84.38
2022-10-17T01:41:54.156Z,84.98
2022-10-17T01:44:42.378Z,85.56
2022-10-17T01:47:13.633Z,86.64
2022-10-17T01:49:44.353Z,85.04
2022-10-17T01:52:19.388Z,84.58
2022-10-17T01:55:06.419Z,84.53
2022-10-17T01:57:37.272Z,84.39
2022-10-17T02:00:08.970Z,85.11
2022-10-17T02:02:43.632Z,87.01
2022-10-17T02:05:12.511Z,85.92
2022-10-17T02:07:42.032Z,84.62
2022-10-17T02:10:13.485Z,84.87
2022-10-17T02:12:54.562Z,85.76
2022-10-17T02:15:40.545Z,86.15
2022-10-17T02:18:08.630Z,85.83
2022-10-17T02:20:39.777Z,85.21
2022-10-17T02:23:31.021Z,85.04
2022-10-17T02:26:19.646Z,84.70
2022-10-17T02:28:52.676Z,84.02
2022-10-17T02:31:23.064Z,83.64
2022-10-17T02:34:03.118Z,83.63
2022-10-17T02:36:35.596Z,83.74
2022-10-17T02:39:04.493Z,83.89
2022-10-17T02:41:34.267Z,83.63
2022-10-17T02:44:05.382Z,84.04
2022-10-17T02:46:34.444Z,84.07
2022-10-17T02:49:21.577Z,84.29
2022-10-17T02:51:57.542Z,84.51
2022-10-17T02:54:33.582Z,84.53
2022-10-17T02:57:07.085Z,84.56
2022-10-17T02:59:36.379Z,84.48
2022-10-17T03:02:05.483Z,84.65
2022-10-17T03:04:34.211Z,84.30
2022-10-17T03:07:02.162Z,84.09
2022-10-17T03:09:30.192Z,83.87
2022-10-17T03:11:58.165Z,84.24
2022-10-17T03:14:26.874Z,84.78
2022-10-17T03:16:54.878Z,84.28
2022-10-17T03:19:23.540Z,84.26
2022-10-17T03:21:52.118Z,84.33
2022-10-17T03:24:20.100Z,84.18
2022-10-17T03:26:48.172Z,83.92
2022-10-17T03:29:16.337Z,83.78
2022-10-17T03:31:44.515Z,83.74
2022-10-17T03:34:12.694Z,83.79
2022-10-17T03:36:40.670Z,83.74
2022-10-17T03:39:08.832Z,83.84
2022-10-17T03:41:36.752Z,83.81
2022-10-17T03:44:04.788Z,83.98
2022-10-17T03:46:32.794Z,84.41
2022-10-17T03:49:01.340Z,84.21
2022-10-17T03:51:29.596Z,84.71
2022-10-17T03:54:02.352Z,84.90
2022-10-17T03:56:30.675Z,85.17
2022-10-17T03:59:02.642Z,85.28
2022-10-17T04:01:31.631Z,85.43
2022-10-17T04:04:00.346Z,85.17
2022-10-17T04:06:31.876Z,85.38
2022-10-17T04:09:01.182Z,84.94
2022-10-17T04:11:37.343Z,84.80
2022-10-17T04:14:05.803Z,84.29
2022-10-17T04:16:34.126Z,84.12
2022-10-17T04:19:05.049Z,84.12
2022-10-17T04:21:38.034Z,84.04
2022-10-17T04:24:10.336Z,84.01
2022-10-17T04:26:44.326Z,83.90
2022-10-17T04:29:12.800Z,83.73
2022-10-17T04:31:41.636Z,84.13
2022-10-17T04:34:22.467Z,84.67
2022-10-17T04:36:52.078Z,84.81
2022-10-17T04:39:21.072Z,84.62
2022-10-17T04:41:49.456Z,85.03
2022-10-17T04:44:17.525Z,85.66
2022-10-17T04:47:05.899Z,85.73
2022-10-17T04:49:34.188Z,85.87
2022-10-17T04:52:08.787Z,85.44
2022-10-17T04:54:43.819Z,85.07
2022-10-17T04:57:14.664Z,84.46
2022-10-17T04:59:44.955Z,84.41
2022-10-17T05:02:20.047Z,84.88
2022-10-17T05:04:48.321Z,85.26
2022-10-17T05:07:16.675Z,84.97
2022-10-17T05:09:49.694Z,84.97
2022-10-17T05:12:17.805Z,85.56
2022-10-17T05:14:46.118Z,85.11
2022-10-17T05:17:14.951Z,84.74
2022-10-17T05:19:42.881Z,84.86
2022-10-17T05:22:11.058Z,85.19
2022-10-17T05:24:40.249Z,85.02
2022-10-17T05:27:08.637Z,84.62
2022-10-17T05:29:36.813Z,84.45
2022-10-17T05:32:10.830Z,84.48
2022-10-17T05:34:39.221Z,84.60
2022-10-17T05:37:07.222Z,84.59
2022-10-17T05:39:35.455Z,84.57
2022-10-17T05:42:04.519Z,84.57
2022-10-17T05:44:32.472Z,84.65
2022-10-17T05:47:00.904Z,84.76
2022-10-17T05:49:43.563Z,84.96
2022-10-17T05:52:14.570Z,85.05
2022-10-17T05:54:54.627Z,85.01
2022-10-17T05:57:25.352Z,84.94
2022-10-17T05:59:53.594Z,84.95
2022-10-17T06:02:22.503Z,84.79
2022-10-17T06:04:51.062Z,84.89
2022-10-17T06:07:21.444Z,84.75
2022-10-17T06:09:49.963Z,84.59
2022-10-17T06:12:18.095Z,84.54
2022-10-17T06:14:46.574Z,84.30
2022-10-17T06:17:16.459Z,83.95
2022-10-17T06:19:45.809Z,83.72
2022-10-17T06:22:16.119Z,83.58
2022-10-17T06:24:44.122Z,83.75
2022-10-17T06:27:13.069Z,83.26
2022-10-17T06:29:42.266Z,82.98
2022-10-17T06:32:14.126Z,83.06
2022-10-17T06:34:46.957Z,83.16
2022-10-17T06:37:15.929Z,82.47
2022-10-17T06:39:44.623Z,82.09
2022-10-17T06:42:19.347Z,81.46
2022-10-17T06:44:50.654Z,81.24
2022-10-17T06:47:38.841Z,80.69
2022-10-17T06:50:19.456Z,80.52
2022-10-17T06:52:58.858Z,80.22
2022-10-17T06:55:51.213Z,79.57
2022-10-17T06:58:31.660Z,79.08
2022-10-17T07:01:25.132Z,78.45
2022-10-17T07:03:56.641Z,78.31
2022-10-17T07:06:24.855Z,77.73
2022-10-17T07:08:55.829Z,77.81
2022-10-17T07:11:24.035Z,77.05
2022-10-17T07:13:53.023Z,77.37
2022-10-17T07:16:22.821Z,77.13
2022-10-17T07:19:02.012Z,76.04
2022-10-17T07:21:38.154Z,74.12
2022-10-17T07:24:08.509Z,74.26
2022-10-17T07:26:36.818Z,74.84
2022-10-17T07:29:06.630Z,75.67
2022-10-17T07:31:39.247Z,75.81
2022-10-17T07:34:07.449Z,74.84
2022-10-17T07:36:35.532Z,74.81
2022-10-17T07:39:05.810Z,74.83
2022-10-17T07:41:34.237Z,75.49
2022-10-17T07:44:02.210Z,75.54
2022-10-17T07:46:35.097Z,75.51
2022-10-17T07:51:06.170Z,75.57
2022-10-17T07:53:38.012Z,75.24
2022-10-17T07:56:09.114Z,75.45
2022-10-17T07:58:37.273Z,75.76
2022-10-17T08:01:09.410Z,75.93
2022-10-17T08:03:39.050Z,74.91
2022-10-17T08:06:06.099Z,74.99
2022-10-17T08:08:32.966Z,75.17
2022-10-17T08:11:05.845Z,75.17
2022-10-17T08:13:33.396Z,75.06
2022-10-17T08:16:06.967Z,72.90
2022-10-17T08:18:35.266Z,73.93
2022-10-17T08:21:06.223Z,73.90
2022-10-17T08:23:33.058Z,72.12
2022-10-17T08:26:00.964Z,72.24
2022-10-17T08:28:28.593Z,71.47
2022-10-17T08:31:11.080Z,71.07
2022-10-17T08:33:38.033Z,69.34
2022-10-17T08:36:06.554Z,68.72
2022-10-17T08:38:35.536Z,68.53
2022-10-17T08:41:13.134Z,68.62
2022-10-17T08:43:46.145Z,68.59
2022-10-17T08:48:46.304Z,68.67
2022-10-17T08:51:28.254Z,68.24
2022-10-17T08:54:08.007Z,67.75
2022-10-17T08:56:48.472Z,67.11
2022-10-17T08:59:28.834Z,67.68
2022-10-17T09:01:58.334Z,66.89
2022-10-17T09:04:38.832Z,65.90
2022-10-17T09:07:32.293Z,62.31
2022-10-17T09:10:41.201Z,62.70
2022-10-17T09:13:18.079Z,59.55
2022-10-17T09:15:54.042Z,58.87
2022-10-17T09:18:43.636Z,55.73
2022-10-17T09:21:20.500Z,56.13
2022-10-17T09:24:08.824Z,55.05
2022-10-17T09:26:39.175Z,54.58
2022-10-17T09:29:25.276Z,54.41
2022-10-17T09:32:04.197Z,55.14
2022-10-17T09:34:32.474Z,54.12
2022-10-17T09:37:01.167Z,54.94
2022-10-17T09:39:31.429Z,54.54
2022-10-17T09:42:02.843Z,53.67
2022-10-17T09:44:34.095Z,54.06
2022-10-17T09:47:21.966Z,54.47
2022-10-17T09:49:50.100Z,55.12
2022-10-17T09:52:18.375Z,54.67
2022-10-17T09:54:48.718Z,54.97
2022-10-17T09:57:17.703Z,54.45
2022-10-17T09:59:58.197Z,54.62
2022-10-17T10:02:27.221Z,53.48
2022-10-17T10:05:05.098Z,54.31
2022-10-17T10:07:38.407Z,54.80
2022-10-17T10:10:22.119Z,54.16
2022-10-17T10:13:03.746Z,54.51
2022-10-17T10:15:38.126Z,54.27
2022-10-17T10:18:24.771Z,54.28
2022-10-17T10:21:11.237Z,54.20
2022-10-17T10:23:41.146Z,53.94
2022-10-17T10:26:26.866Z,54.05
2022-10-17T10:28:59.871Z,53.92
2022-10-17T10:31:30.823Z,53.59
2022-10-17T10:34:00.909Z,53.10
2022-10-17T10:36:46.991Z,53.10
2022-10-17T10:39:51.710Z,51.91
2022-10-17T10:42:23.992Z,51.91
2022-10-17T10:44:52.784Z,52.15
2022-10-17T10:47:23.195Z,51.08
2022-10-17T10:49:53.218Z,50.97
2022-10-17T10:52:34.958Z,49.19
2022-10-17T10:55:25.846Z,46.90
2022-10-17T10:58:02.914Z,48.11
2022-10-17T11:00:34.034Z,49.19
2022-10-17T11:03:17.689Z,47.39
2022-10-17T11:06:03.273Z,45.79
2022-10-17T11:09:15.079Z,45.77
2022-10-17T11:11:47.527Z,44.97
2022-10-17T11:14:24.192Z,45.58
2022-10-17T11:16:59.147Z,45.20
2022-10-17T11:19:43.910Z,42.77
2022-10-17T11:22:28.305Z,44.29
2022-10-17T11:24:59.256Z,44.38
2022-10-17T11:27:28.961Z,44.55
2022-10-17T11:29:57.006Z,44.81
2022-10-17T11:32:32.023Z,45.04
2022-10-17T11:35:25.412Z,45.53
2022-10-17T11:38:03.007Z,44.84
2022-10-17T11:40:41.717Z,44.86
2022-10-17T11:43:41.444Z,45.04
2022-10-17T11:46:40.271Z,44.65
2022-10-17T11:49:19.192Z,43.39
2022-10-17T11:52:44.469Z,43.18
2022-10-17T11:55:25.046Z,43.64
2022-10-17T11:58:17.152Z,44.57
2022-10-17T12:00:56.036Z,44.17
2022-10-17T12:03:42.252Z,43.90
2022-10-17T12:06:16.454Z,44.74
2022-10-17T12:08:46.284Z,43.03
2022-10-17T12:11:19.643Z,43.60
2022-10-17T12:13:49.110Z,42.42
2022-10-17T12:16:19.271Z,41.66
2022-10-17T12:19:02.092Z,41.66
2022-10-17T12:21:54.637Z,41.34
2022-10-17T12:24:42.887Z,42.26
2022-10-17T12:27:28.881Z,43.19
2022-10-17T12:30:05.563Z,43.47
2022-10-17T12:32:46.971Z,44.23
2022-10-17T12:35:22.332Z,42.93
2022-10-17T12:37:48.945Z,42.53
2022-10-17T12:40:35.835Z,42.70
2022-10-17T12:43:15.118Z,41.90
2022-10-17T12:45:51.973Z,41.57
2022-10-17T12:48:34.382Z,42.88
2022-10-17T12:51:30.711Z,43.32
2022-10-17T12:53:54.172Z,42.59
2022-10-17T12:56:45.995Z,42.99
2022-10-17T12:59:24.820Z,44.03
2022-10-17T13:01:57.113Z,44.00
2022-10-17T13:04:25.370Z,43.06
2022-10-17T13:06:55.936Z,43.18
2022-10-17T13:09:32.078Z,43.76
2022-10-17T13:12:02.594Z,44.08
2022-10-17T13:14:31.908Z,44.12
2022-10-17T13:17:04.551Z,42.42
2022-10-17T13:19:44.121Z,42.81
2022-10-17T13:22:23.460Z,43.78
2022-10-17T13:24:52.357Z,43.51
2022-10-17T13:27:27.720Z,43.29
2022-10-17T13:29:56.454Z,43.26
2022-10-17T13:32:25.481Z,43.30
2022-10-17T13:35:11.373Z,43.53
2022-10-17T13:37:41.199Z,42.60
2022-10-17T13:40:40.930Z,41.57
2022-10-17T13:43:05.482Z,41.76
2022-10-17T13:45:36.419Z,41.15
2022-10-17T13:48:07.621Z,41.10
2022-10-17T13:50:44.606Z,40.72
2022-10-17T13:53:24.316Z,41.15
2022-10-17T13:56:28.476Z,42.43
2022-10-17T13:59:07.651Z,43.07
2022-10-17T14:01:36.651Z,42.49
2022-10-17T14:04:09.518Z,42.71
2022-10-17T14:06:47.576Z,43.04
2022-10-17T14:09:24.020Z,43.03
2022-10-17T14:12:13.011Z,43.21
2022-10-17T14:15:08.708Z,43.17
2022-10-17T14:17:33.043Z,43.20
2022-10-17T14:23:17.597Z,43.48
2022-10-17T14:25:40.630Z,43.79
2022-10-17T14:28:09.036Z,43.78
2022-10-17T14:30:57.223Z,44.48
2022-10-17T14:33:29.022Z,44.79
2022-10-17T14:35:59.650Z,45.07
2022-10-17T14:38:28.340Z,45.23
2022-10-17T14:41:23.599Z,45.42
2022-10-17T14:44:02.749Z,45.67
2022-10-17T14:46:30.143Z,45.97
2022-10-17T14:49:07.009Z,46.10
2022-10-17T14:51:44.715Z,46.10
2022-10-17T14:54:29.240Z,46.45
2022-10-17T14:56:55.872Z,46.63
2022-10-17T14:59:52.750Z,46.72
2022-10-17T15:02:12.777Z,46.90
2022-10-17T15:04:40.005Z,47.10
2022-10-17T15:07:06.599Z,47.27
2022-10-17T15:09:33.487Z,47.34
2022-10-17T15:12:02.436Z,47.76
2022-10-17T15:14:29.232Z,48.35
2022-10-17T15:16:55.808Z,49.32
2022-10-17T15:19:22.512Z,49.56
2022-10-17T15:21:49.246Z,49.90
2022-10-17T15:24:15.905Z,50.25
2022-10-17T15:26:42.862Z,50.79
2022-10-17T15:29:15.446Z,50.79
2022-10-17T15:31:42.155Z,51.73
2022-10-17T15:34:08.897Z,51.41
2022-10-17T15:36:41.320Z,51.71
2022-10-17T15:39:09.753Z,51.83
2022-10-17T15:41:36.912Z,52.01
2022-10-17T15:44:03.668Z,52.15
2022-10-17T15:46:33.563Z,52.17
2022-10-17T15:49:07.045Z,52.70
2022-10-17T15:51:34.023Z,53.58
2022-10-17T15:54:01.104Z,54.40
2022-10-17T15:56:30.062Z,54.67
2022-10-17T15:58:57.622Z,55.05
2022-10-17T16:01:27.667Z,56.76
2022-10-17T16:03:55.506Z,57.46
2022-10-17T16:06:22.924Z,58.09
2022-10-17T16:08:50.327Z,59.51
2022-10-17T16:11:37.358Z,60.09
2022-10-17T16:14:09.529Z,60.30
2022-10-17T16:16:36.358Z,60.79
2022-10-17T16:19:04.580Z,61.63
2022-10-17T16:21:35.447Z,62.22
2022-10-17T16:24:03.852Z,63.00
2022-10-17T16:26:31.109Z,63.56
2022-10-17T16:29:02.206Z,63.75
2022-10-17T16:31:32.733Z,64.02
2022-10-17T16:34:01.943Z,64.60
2022-10-17T16:36:29.029Z,64.89
2022-10-17T16:38:55.873Z,65.28
2022-10-17T16:41:25.279Z,65.72
2022-10-17T16:43:53.882Z,65.66
2022-10-17T16:46:22.245Z,66.53
2022-10-17T16:48:49.534Z,66.38
2022-10-17T16:51:18.404Z,66.60
2022-10-17T16:53:46.570Z,66.90
2022-10-17T16:56:17.418Z,66.94
2022-10-17T16:58:44.972Z,67.15
2022-10-17T17:01:14.697Z,65.60
2022-10-17T17:03:43.722Z,65.07
2022-10-17T17:06:16.765Z,65.65
2022-10-17T17:08:43.541Z,66.78
2022-10-17T17:11:13.240Z,66.56
2022-10-17T17:13:40.865Z,66.97
2022-10-17T17:16:09.631Z,66.82
2022-10-17T17:18:37.233Z,67.97
2022-10-17T17:21:07.354Z,68.07
2022-10-17T17:23:36.994Z,68.53
2022-10-17T17:26:06.987Z,68.89
2022-10-17T17:28:34.648Z,69.03
2022-10-17T17:31:05.284Z,69.30
2022-10-17T17:33:33.351Z,69.99
2022-10-17T17:36:01.752Z,70.73
2022-10-17T17:38:30.829Z,71.47
2022-10-17T17:40:57.818Z,71.43
2022-10-17T17:43:24.826Z,70.67
2022-10-17T17:45:52.083Z,69.60
2022-10-17T17:48:19.845Z,70.19
2022-10-17T17:50:46.677Z,71.07
2022-10-17T17:53:15.610Z,70.68
2022-10-17T17:55:42.157Z,70.68
2022-10-17T17:58:09.172Z,70.84
2022-10-17T18:00:35.931Z,71.24
2022-10-17T18:03:03.071Z,71.47
2022-10-17T18:05:30.804Z,71.59
2022-10-17T18:07:58.195Z,71.45
2022-10-17T18:10:24.768Z,71.87
2022-10-17T18:12:51.774Z,71.91
2022-10-17T18:15:18.470Z,72.02
2022-10-17T18:17:45.258Z,73.00
2022-10-17T18:20:11.870Z,73.85
2022-10-17T18:22:38.537Z,74.23
2022-10-17T18:25:06.302Z,74.53
2022-10-17T18:27:33.049Z,74.69
2022-10-17T18:29:59.889Z,75.11
2022-10-17T18:32:30.394Z,75.32
2022-10-17T18:34:57.981Z,75.26
2022-10-17T18:37:24.688Z,75.65
2022-10-17T18:39:53.523Z,76.01
2022-10-17T18:42:20.359Z,75.68
2022-10-17T18:44:47.535Z,75.50
2022-10-17T18:47:14.463Z,75.05
2022-10-17T18:49:42.357Z,74.58
2022-10-17T18:52:09.104Z,75.11
2022-10-17T18:54:35.680Z,75.25
2022-10-17T18:57:02.654Z,74.87
2022-10-17T18:59:29.347Z,75.34
2022-10-17T19:01:56.041Z,75.43
2022-10-17T19:04:22.984Z,75.41
2022-10-17T19:06:49.834Z,76.10
2022-10-17T19:09:16.877Z,76.02
2022-10-17T19:11:43.826Z,76.20
2022-10-17T19:14:12.720Z,76.34
2022-10-17T19:16:50.384Z,76.53
2022-10-17T19:19:23.004Z,76.48
2022-10-17T19:21:49.949Z,76.32
2022-10-17T19:24:20.799Z,76.20
2022-10-17T19:26:55.273Z,76.62
2022-10-17T19:29:25.238Z,76.77
2022-10-17T19:31:52.423Z,76.59
2022-10-17T19:34:19.348Z,77.54
2022-10-17T19:36:46.675Z,77.34
2022-10-17T19:39:17.924Z,76.91
2022-10-17T19:41:46.419Z,76.86
2022-10-17T19:44:14.173Z,76.87
2022-10-17T19:46:43.816Z,77.32
2022-10-17T19:49:11.244Z,77.16
2022-10-17T19:51:38.500Z,77.64
2022-10-17T19:54:05.444Z,77.62
2022-10-17T19:56:37.174Z,77.50
2022-10-17T19:59:07.979Z,77.58
2022-10-17T20:01:38.321Z,77.77
2022-10-17T20:04:06.019Z,77.37
2022-10-17T20:06:33.826Z,77.30
2022-10-17T20:09:00.746Z,77.44
2022-10-17T20:11:28.340Z,77.70
2022-10-17T20:13:56.071Z,78.58
2022-10-17T20:16:25.310Z,78.59
2022-10-17T20:18:54.704Z,78.55
2022-10-17T20:21:31.970Z,78.11
2022-10-17T20:23:59.526Z,77.83
2022-10-17T20:26:42.857Z,79.02
2022-10-17T20:29:27.930Z,78.08
2022-10-17T20:31:54.667Z,77.98
2022-10-17T20:34:21.514Z,78.33
2022-10-17T20:36:49.283Z,78.00
2022-10-17T20:39:18.786Z,78.10
2022-10-17T20:41:46.498Z,78.53
2022-10-17T20:44:13.753Z,78.21
2022-10-17T20:46:45.156Z,78.74
2022-10-17T20:49:18.047Z,78.75
2022-10-17T20:51:45.121Z,79.09
2022-10-17T20:54:12.348Z,78.04
2022-10-17T20:56:39.255Z,77.66
2022-10-17T20:59:11.772Z,77.89
2022-10-17T21:01:38.762Z,78.39
2022-10-17T21:04:33.303Z,78.64
2022-10-17T21:06:52.968Z,79.15
2022-10-17T21:09:20.552Z,79.22
2022-10-17T21:11:48.045Z,79.10
2022-10-17T21:14:16.196Z,77.63
2022-10-17T21:16:43.630Z,79.32
2022-10-17T21:19:12.042Z,79.38
2022-10-17T21:21:41.745Z,79.64
2022-10-17T21:24:16.877Z,78.95
2022-10-17T21:26:45.779Z,78.58
2022-10-17T21:29:13.436Z,79.72
2022-10-17T21:31:42.707Z,79.47
2022-10-17T21:34:12.413Z,78.66
2022-10-17T21:36:39.802Z,77.79
2022-10-17T21:41:34.654Z,78.02
2022-10-17T21:44:04.513Z,77.30
2022-10-17T21:46:32.512Z,78.22
2022-10-17T21:49:00.477Z,77.79
2022-10-17T21:51:27.999Z,78.79
2022-10-17T21:53:57.072Z,80.25
2022-10-17T21:56:30.058Z,79.39
2022-10-17T21:58:58.729Z,79.33
2022-10-17T22:01:31.615Z,79.52
2022-10-17T22:04:01.081Z,79.45
2022-10-17T22:06:40.608Z,80.20
2022-10-17T22:09:23.033Z,79.83
2022-10-17T22:11:55.026Z,80.13
2022-10-17T22:14:24.016Z,80.08
2022-10-17T22:16:51.375Z,80.22
2022-10-17T22:19:21.340Z,80.25
2022-10-17T22:21:49.115Z,80.25
2022-10-17T22:24:19.128Z,80.49
2022-10-17T22:26:46.019Z,80.20
2022-10-17T22:29:13.682Z,80.04
2022-10-17T22:31:41.041Z,79.77
2022-10-17T22:34:11.169Z,80.20
2022-10-17T22:36:37.914Z,80.41
2022-10-17T22:39:04.831Z,80.40
2022-10-17T22:41:31.614Z,80.56
2022-10-17T22:43:58.641Z,81.18
2022-10-17T22:46:25.849Z,81.75
2022-10-17T22:48:52.667Z,80.18
2022-10-17T22:51:19.733Z,79.43
2022-10-17T22:53:46.405Z,80.21
2022-10-17T22:56:16.968Z,80.35
2022-10-17T22:58:43.953Z,80.81
2022-10-17T23:01:18.725Z,80.96
2022-10-17T23:03:45.993Z,81.02
2022-10-17T23:06:13.244Z,81.34
2022-10-17T23:08:40.706Z,79.78
2022-10-17T23:11:08.609Z,79.30
2022-10-17T23:13:36.033Z,79.31
2022-10-17T23:16:03.244Z,79.73
2022-10-17T23:20:57.905Z,80.71
2022-10-17T23:23:24.749Z,81.28
2022-10-17T23:25:52.412Z,80.81
2022-10-17T23:28:19.087Z,80.17
2022-10-17T23:30:45.888Z,79.79
2022-10-17T23:33:13.788Z,80.37
2022-10-17T23:35:41.421Z,81.96
2022-10-17T23:38:09.336Z,82.01
2022-10-17T23:40:36.338Z,81.31
2022-10-17T23:43:04.412Z,80.68
2022-10-17T23:45:36.130Z,79.99
2022-10-17T23:48:05.166Z,80.90
2022-10-17T23:50:31.924Z,80.29
2022-10-17T23:52:58.553Z,79.68
2022-10-17T23:55:25.399Z,81.08
2022-10-17T23:57:52.647Z,82.11
